Hopa, Turkey

12:19 AM EEST on August 23, 2014 (GMT +0300)
Batumi | Change Station
CLOSE
Current Station
Airport
Location: Batumi,
Elevation: 105 ft
Nearby Weather Stations

Elev 105 ft 41.63 °N, 41.60 °E | Updated 19 minutes ago

Scattered Clouds
Scattered Clouds
73 °F
Feels Like 73 °F
N
8
Wind Variable Wind from SE

Today
High -- | Low -- °F
--% Chance of Precip.
Yesterday
High -- | Low -- °F
Precip. -- in
5:31 AM 7:02 PM
Waning Crescent, 7% visible
Pressure 30.04 in
Visibility 6.2 miles
Clouds Scattered Clouds 2600 ft
Dew Point 70 °F
Humidity 88%
Rainfall 0.00 in
Snow Depth Not available.
UV 0 out of 12
Pollen Not available.
Air Quality Not available.
Flu Activity Not available.
METAR UGSB 222100Z AUTO 13007KT 9999 SCT026 23/21 Q1017 R13/CLRD70 NOSIG

More Conditions Fewer Conditions

Pressure 30.04 in
Visibility 6.2 miles
Clouds Scattered Clouds 2600 ft
Dew Point 70 °F
Humidity 88%
Rainfall 0.00 in
Snow Depth Not available.
UV 0 out of 12
Pollen Not available.
Air Quality Not available.
Flu Activity Not available.
METAR UGSB 222100Z AUTO 13007KT 9999 SCT026 23/21 Q1017 R13/CLRD70 NOSIG

More Conditions Fewer Conditions

10-Day Weather Forecast

Almanac

Astronomy

Aug. 23, 2014 Rise Set
Actual Time 5:31 AM EEST 7:02 PM EEST
Civil Twilight 5:01 AM EEST 7:31 PM EEST
Nautical Twilight 4:26 AM EEST 8:06 PM EEST
Astronomical Twilight 3:49 AM EEST 8:43 PM EEST
Moon 3:27 AM EEST (8/23) 5:34 PM EEST (8/23)
Length of Visible Light 14h 29m
Length of Day
13h 31m
Tomorrow will be 2m 34s shorter.
Waning Crescent, 7% of the Moon is Illuminated
Aug 22
Waning Crescent
Aug 25
New
Sep 2
First Quarter
Sep 8
Full
Sep 15
Last Quarter

Yesterday's Extremes

Country Highs Country Lows

Community

WunderPhotos

Upload Photos

1,746,256 photos uploaded!

Nearby

Snow Depth

Not available.

Earthquake Activity

City Distance Mag. Time & Date
No recent earthquake activity has been reported nearby.
Minimum magnitude displayed is 2.5.

Coastal Water Temperatures

Place Temperature
No Stations Reporting

Nearby Weather Stations